Time;durP1;ratioP1;P1;durP2;ratioP2;P2;SDS_P1;SDS_P2;PMS_P1;PMS_P2;Temp;Humidity;BMP_temperature;BMP_pressure;BME280_temperature;BME280_humidity;BME280_pressure;Samples;Min_cycle;Max_cycle;Signal;HPM_P1;HPM_P2
2022/03/11 00:01:07;;;;;;;;;;;;;;;17.97;56.80;102170.75;5022515;28;2260;-35
2022/03/11 00:03:35;;;;;;;;;;;;;;;17.89;56.31;102179.25;5024693;28;1585;-35
2022/03/11 00:06:01;;;;;;;;;;;;;;;17.83;56.57;102159.06;5021296;28;1391;-35
2022/03/11 00:08:31;;;;;;;;;;;;;;;17.85;56.53;102169.69;5021372;28;1839;-35
2022/03/11 00:11:00;;;;;;;;;;;;;;;17.77;56.82;102169.25;5031277;28;1807;-35
2022/03/11 00:13:27;;;;;;;;;;;;;;;17.76;56.59;102173.72;5032092;28;1903;-35
2022/03/11 00:15:55;;;;;;;;;;;;;;;17.72;56.63;102177.53;5023487;28;1578;-35
2022/03/11 00:18:22;;;;;;;;;;;;;;;17.70;56.44;102185.66;5024708;28;1618;-35
2022/03/11 00:20:49;;;;;;;;;;;;;;;17.66;56.75;102168.06;5017990;28;1797;-35
2022/03/11 00:23:16;;;;;;;;;;;;;;;17.60;56.58;102164.91;5029951;28;1519;-35
2022/03/11 00:25:44;;;;;;;;;;;;;;;17.65;56.77;102162.84;5022130;28;1515;-35
2022/03/11 00:28:10;;;;;;;;;;;;;;;17.71;56.67;102167.81;5021308;28;1454;-35
2022/03/11 00:30:37;;;;;;;;;;;;;;;17.62;56.60;102161.19;5032980;28;1545;-35
2022/03/11 00:33:03;;;;;;;;;;;;;;;17.59;56.77;102155.19;5027887;28;1942;-35
2022/03/11 00:35:32;;;;;;;;;;;;;;;17.65;56.84;102157.47;5025010;28;1450;-35
2022/03/11 00:37:58;;;;;;;;;;;;;;;17.60;57.17;102167.59;5021957;28;1635;-35
2022/03/11 00:40:25;;;;;;;;;;;;;;;17.62;57.03;102157.66;5023053;28;1602;-35
2022/03/11 00:42:53;;;;;;;;;;;;;;;17.59;57.05;102153.34;5026890;28;1095;-35
2022/03/11 00:45:19;;;;;;;;;;;;;;;17.61;57.34;102161.31;5033792;28;1745;-35
2022/03/11 00:47:46;;;;;;;;;;;;;;;17.59;57.32;102149.84;5029066;28;2032;-35
2022/03/11 00:50:12;;;;;;;;;;;;;;;17.60;57.25;102156.88;5028654;28;1681;-35
2022/03/11 00:52:40;;;;;;;;;;;;;;;17.57;57.08;102157.94;5027590;28;1898;-35
2022/03/11 00:55:07;;;;;;;;;;;;;;;17.58;57.49;102164.16;5029198;28;1404;-35
2022/03/11 00:57:34;;;;;;;;;;;;;;;17.60;57.11;102152.38;5027979;28;1897;-35
2022/03/11 01:00:02;;;;;;;;;;;;;;;17.87;56.32;102157.06;5028323;28;1801;-35
2022/03/11 01:02:33;;;;;;;;;;;;;;;18.19;55.92;102144.34;5025541;28;1737;-35
2022/03/11 01:04:59;;;;;;;;;;;;;;;18.50;55.40;102147.75;5025372;28;1504;-35
2022/03/11 01:07:26;;;;;;;;;;;;;;;18.62;55.03;102143.41;5027157;28;1775;-35
2022/03/11 01:09:54;;;;;;;;;;;;;;;18.75;54.34;102152.38;5032889;28;1516;-35
2022/03/11 01:12:20;;;;;;;;;;;;;;;18.81;54.80;102151.16;5025356;28;1981;-35
2022/03/11 01:14:46;;;;;;;;;;;;;;;18.82;54.12;102143.03;5033849;28;1882;-35
2022/03/11 01:17:14;;;;;;;;;;;;;;;18.84;54.76;102150.94;5025926;28;1054;-35
2022/03/11 01:19:41;;;;;;;;;;;;;;;18.83;54.60;102150.09;5028112;28;1768;-35
2022/03/11 01:22:10;;;;;;;;;;;;;;;18.81;54.12;102153.84;5030428;28;2097;-34
2022/03/11 01:24:40;;;;;;;;;;;;;;;18.77;54.86;102144.25;5032320;28;1729;-35
2022/03/11 01:27:09;;;;;;;;;;;;;;;18.71;54.42;102153.53;5022856;28;1478;-34
2022/03/11 01:29:37;;;;;;;;;;;;;;;18.60;54.80;102150.69;5031791;28;1832;-35
2022/03/11 01:32:08;;;;;;;;;;;;;;;18.54;55.21;102159.97;5035008;28;1825;-35
2022/03/11 01:34:40;;;;;;;;;;;;;;;18.46;55.08;102147.09;5026171;28;1053;-34
2022/03/11 01:37:09;;;;;;;;;;;;;;;18.39;55.13;102151.13;5032490;28;1922;-34
2022/03/11 01:39:38;;;;;;;;;;;;;;;18.33;55.24;102145.31;5025775;28;1804;-35
2022/03/11 01:42:08;;;;;;;;;;;;;;;18.30;55.26;102151.69;5020965;28;1749;-35
2022/03/11 01:44:37;;;;;;;;;;;;;;;18.22;55.32;102160.22;5022002;28;1633;-35
2022/03/11 01:47:25;;;;;;;;;;;;;;;18.18;55.34;102152.47;5033730;28;1558;-35
2022/03/11 01:49:55;;;;;;;;;;;;;;;18.11;55.81;102157.38;5025890;28;1707;-36
2022/03/11 01:52:25;;;;;;;;;;;;;;;18.05;55.65;102157.75;5026109;28;1914;-35
2022/03/11 01:54:53;;;;;;;;;;;;;;;18.01;55.70;102158.91;5031959;28;1773;-35
2022/03/11 01:57:20;;;;;;;;;;;;;;;17.96;55.53;102166.34;5019734;28;1848;-35
2022/03/11 01:59:50;;;;;;;;;;;;;;;17.91;55.38;102171.97;5029441;28;1918;-35
2022/03/11 02:02:17;;;;;;;;;;;;;;;17.86;55.70;102172.25;5032635;28;1916;-35
2022/03/11 02:04:48;;;;;;;;;;;;;;;17.82;55.72;102169.81;5033321;28;1796;-35
2022/03/11 02:07:21;;;;;;;;;;;;;;;17.77;55.65;102177.28;5029472;28;1765;-35
2022/03/11 02:09:50;;;;;;;;;;;;;;;17.72;55.29;102161.50;5022911;28;1673;-35
2022/03/11 02:12:29;;;;;;;;;;;;;;;17.69;54.86;102159.03;5032074;28;1761;-35
2022/03/11 02:14:59;;;;;;;;;;;;;;;17.62;55.26;102182.59;5033774;28;2035;-35
2022/03/11 02:17:29;;;;;;;;;;;;;;;17.57;55.55;102170.47;5029067;28;1678;-35
2022/03/11 02:19:58;;;;;;;;;;;;;;;17.50;55.99;102168.13;5030643;28;996;-35
2022/03/11 02:22:35;;;;;;;;;;;;;;;17.46;55.64;102169.25;5024933;28;1911;-35
2022/03/11 02:25:06;;;;;;;;;;;;;;;17.48;55.98;102170.03;5034545;28;1876;-35
2022/03/11 02:27:42;;;;;;;;;;;;;;;17.55;55.66;102167.00;5028052;28;1776;-34
2022/03/11 02:30:32;;;;;;;;;;;;;;;17.44;55.60;102168.50;5031069;28;2104;-35
2022/03/11 02:33:00;;;;;;;;;;;;;;;17.44;56.20;102179.19;5032965;28;1906;-35
2022/03/11 02:35:28;;;;;;;;;;;;;;;17.50;55.74;102175.28;5031618;28;1736;-35
2022/03/11 02:37:54;;;;;;;;;;;;;;;17.47;56.14;102183.53;5031370;28;1749;-35
2022/03/11 02:40:24;;;;;;;;;;;;;;;17.52;56.08;102173.38;5027202;28;1736;-35
2022/03/11 02:42:51;;;;;;;;;;;;;;;17.51;56.02;102171.69;5028007;28;1063;-35
2022/03/11 02:45:21;;;;;;;;;;;;;;;17.53;56.13;102174.25;5020646;28;1769;-35
2022/03/11 02:47:48;;;;;;;;;;;;;;;17.53;56.04;102183.16;5029966;28;1760;-35
2022/03/11 02:50:16;;;;;;;;;;;;;;;17.62;55.61;102182.59;5021605;28;1790;-35
2022/03/11 02:52:53;;;;;;;;;;;;;;;17.96;55.04;102177.03;5024309;28;1910;-35
2022/03/11 02:55:22;;;;;;;;;;;;;;;18.26;54.50;102183.19;5032430;28;1807;-35
2022/03/11 02:57:57;;;;;;;;;;;;;;;18.44;54.23;102174.91;5025688;28;1100;-35
2022/03/11 03:03:02;;;;;;;;;;;;;;;18.63;53.41;102179.97;5019385;28;1996;-32
2022/03/11 03:05:30;;;;;;;;;;;;;;;18.68;53.89;102188.56;5025242;28;1415;-32
2022/03/11 03:07:56;;;;;;;;;;;;;;;18.64;53.66;102184.34;5021139;28;1711;-32
2022/03/11 03:10:27;;;;;;;;;;;;;;;18.65;53.54;102195.00;5025530;28;1941;-32
2022/03/11 03:12:57;;;;;;;;;;;;;;;18.65;53.63;102195.00;5029936;28;1910;-32
2022/03/11 03:15:27;;;;;;;;;;;;;;;18.61;53.42;102187.25;5017508;28;1429;-32
2022/03/11 03:17:57;;;;;;;;;;;;;;;18.54;53.40;102188.59;5028616;28;1621;-32
2022/03/11 03:20:27;;;;;;;;;;;;;;;18.51;53.83;102186.97;5024352;28;1657;-32
2022/03/11 03:22:54;;;;;;;;;;;;;;;18.49;53.68;102194.25;5025404;28;1570;-32
2022/03/11 03:25:24;;;;;;;;;;;;;;;18.39;54.23;102199.31;5015858;28;1068;-32
2022/03/11 03:27:52;;;;;;;;;;;;;;;18.32;53.87;102195.31;5021607;28;1949;-32
2022/03/11 03:30:31;;;;;;;;;;;;;;;18.23;54.15;102201.25;5030381;28;1305;-32
2022/03/11 03:32:58;;;;;;;;;;;;;;;18.21;54.26;102212.06;5020251;28;1914;-32
2022/03/11 03:35:24;;;;;;;;;;;;;;;18.13;54.22;102202.78;5021212;28;1686;-32
2022/03/11 03:37:51;;;;;;;;;;;;;;;18.08;54.44;102205.72;5031146;28;1804;-32
2022/03/11 03:40:18;;;;;;;;;;;;;;;18.02;54.38;102206.09;5031165;28;1764;-32
2022/03/11 03:42:53;;;;;;;;;;;;;;;17.97;54.42;102202.88;5020668;28;1124;-32
2022/03/11 03:45:25;;;;;;;;;;;;;;;17.97;54.48;102198.38;5025952;28;1638;-32
2022/03/11 03:47:54;;;;;;;;;;;;;;;17.87;54.37;102199.88;5027979;28;1610;-32
2022/03/11 03:50:22;;;;;;;;;;;;;;;17.86;54.03;102200.81;5021265;28;1590;-32
2022/03/11 03:52:53;;;;;;;;;;;;;;;17.75;53.95;102197.91;5018560;28;1926;-32
2022/03/11 03:55:27;;;;;;;;;;;;;;;17.76;54.22;102181.75;5024252;28;1654;-32
2022/03/11 03:57:56;;;;;;;;;;;;;;;17.72;54.56;102193.59;5024649;28;1677;-33
2022/03/11 04:00:28;;;;;;;;;;;;;;;17.70;54.32;102190.16;5028086;28;1732;-32
2022/03/11 04:02:54;;;;;;;;;;;;;;;17.69;53.75;102200.00;5016968;28;1579;-32
2022/03/11 04:05:24;;;;;;;;;;;;;;;17.64;54.03;102183.34;5029908;28;1891;-32
2022/03/11 04:07:51;;;;;;;;;;;;;;;17.62;53.95;102187.94;5033147;28;1818;-32
2022/03/11 04:10:18;;;;;;;;;;;;;;;17.57;54.28;102190.03;5026346;28;2083;-32
2022/03/11 04:12:45;;;;;;;;;;;;;;;17.49;54.01;102192.31;5026467;28;1677;-32
2022/03/11 04:15:14;;;;;;;;;;;;;;;17.52;54.61;102201.97;5031546;28;1906;-32
2022/03/11 04:17:46;;;;;;;;;;;;;;;17.48;54.44;102191.44;5019657;28;1792;-32
2022/03/11 04:20:15;;;;;;;;;;;;;;;17.40;54.67;102191.03;5035940;28;1595;-32
2022/03/11 04:22:42;;;;;;;;;;;;;;;17.32;55.06;102185.28;5031441;28;1624;-33
2022/03/11 04:25:09;;;;;;;;;;;;;;;17.39;54.51;102189.31;5023797;28;1807;-32
2022/03/11 04:27:38;;;;;;;;;;;;;;;17.57;54.58;102181.16;5024978;28;1925;-32
2022/03/11 04:30:07;;;;;;;;;;;;;;;17.47;54.59;102184.38;5032305;28;1923;-32
2022/03/11 04:32:33;;;;;;;;;;;;;;;17.40;54.88;102185.69;5018206;28;1780;-32
2022/03/11 04:35:01;;;;;;;;;;;;;;;17.42;54.60;102197.13;5034891;28;1977;-32
2022/03/11 04:37:29;;;;;;;;;;;;;;;17.39;54.38;102201.81;5026271;28;1654;-32
2022/03/11 04:39:57;;;;;;;;;;;;;;;17.41;54.62;102200.78;5032491;28;1574;-32
2022/03/11 04:42:26;;;;;;;;;;;;;;;17.31;54.98;102212.97;5030801;28;1824;-32
2022/03/11 04:44:55;;;;;;;;;;;;;;;17.30;55.15;102216.59;5034897;28;1704;-32
2022/03/11 04:47:23;;;;;;;;;;;;;;;17.25;55.21;102210.66;5026211;28;1548;-32
2022/03/11 04:50:11;;;;;;;;;;;;;;;17.28;55.23;102213.13;5026294;28;1079;-32
2022/03/11 04:52:54;;;;;;;;;;;;;;;17.42;54.55;102210.50;5020404;28;1738;-33
2022/03/11 04:55:37;;;;;;;;;;;;;;;17.47;54.60;102204.91;5026865;28;1910;-32
2022/03/11 04:58:07;;;;;;;;;;;;;;;17.53;54.40;102198.31;5035452;28;1469;-32
2022/03/11 05:00:34;;;;;;;;;;;;;;;17.83;53.79;102212.59;5034251;28;1087;-32
2022/03/11 05:03:03;;;;;;;;;;;;;;;17.97;53.79;102211.75;5032259;28;1951;-33
2022/03/11 05:05:31;;;;;;;;;;;;;;;18.08;53.41;102221.78;5025938;28;1784;-32
2022/03/11 05:08:01;;;;;;;;;;;;;;;18.17;53.10;102221.22;5028402;28;1744;-32
2022/03/11 05:10:28;;;;;;;;;;;;;;;18.22;53.10;102224.50;5034491;28;1968;-32
2022/03/11 05:12:56;;;;;;;;;;;;;;;18.21;53.48;102219.22;5032444;28;1788;-32
2022/03/11 05:15:26;;;;;;;;;;;;;;;18.24;53.01;102232.41;5021223;28;1971;-32
2022/03/11 05:17:57;;;;;;;;;;;;;;;18.21;53.07;102221.91;5033521;28;1947;-32
2022/03/11 05:20:24;;;;;;;;;;;;;;;18.18;52.90;102227.44;5018225;28;1791;-32
2022/03/11 05:22:51;;;;;;;;;;;;;;;18.13;53.16;102225.06;5027668;28;1625;-33
2022/03/11 05:25:20;;;;;;;;;;;;;;;18.14;53.27;102224.09;5027510;28;1741;-32
2022/03/11 05:27:47;;;;;;;;;;;;;;;18.17;53.44;102225.72;5026675;28;1736;-32
2022/03/11 05:30:14;;;;;;;;;;;;;;;18.06;53.06;102213.00;5025507;28;1873;-32
2022/03/11 05:32:47;;;;;;;;;;;;;;;18.02;53.10;102224.84;5033450;28;2060;-32
2022/03/11 05:35:22;;;;;;;;;;;;;;;17.98;53.45;102220.63;5028907;28;1906;-32
2022/03/11 05:37:51;;;;;;;;;;;;;;;17.99;53.20;102220.53;5023294;28;1952;-32
2022/03/11 05:40:20;;;;;;;;;;;;;;;17.96;53.56;102218.03;5022112;28;1948;-32
2022/03/11 05:42:47;;;;;;;;;;;;;;;17.95;53.38;102207.44;5035417;28;1824;-32
2022/03/11 05:45:14;;;;;;;;;;;;;;;18.00;53.54;102221.41;5030593;28;1670;-32
2022/03/11 05:47:40;;;;;;;;;;;;;;;17.96;53.94;102218.03;5023519;28;1409;-32
2022/03/11 05:50:16;;;;;;;;;;;;;;;17.95;53.88;102210.13;5025181;28;1707;-32
2022/03/11 05:52:44;;;;;;;;;;;;;;;17.95;53.74;102223.50;5033580;28;1686;-32
2022/03/11 05:55:11;;;;;;;;;;;;;;;17.95;53.79;102213.66;5026350;28;1969;-32
2022/03/11 05:57:47;;;;;;;;;;;;;;;17.94;54.65;102224.44;5030419;28;1978;-32
2022/03/11 06:00:16;;;;;;;;;;;;;;;17.91;54.46;102236.22;5033476;28;1946;-32
2022/03/11 06:02:46;;;;;;;;;;;;;;;17.92;54.67;102235.25;5033094;28;1728;-32
2022/03/11 06:05:18;;;;;;;;;;;;;;;17.87;54.59;102229.31;5032076;28;1873;-32
2022/03/11 06:07:44;;;;;;;;;;;;;;;17.86;55.24;102239.13;5019608;28;1748;-32
2022/03/11 06:10:15;;;;;;;;;;;;;;;17.91;55.39;102235.34;5025907;28;1634;-32
2022/03/11 06:12:44;;;;;;;;;;;;;;;18.41;54.59;102229.56;5026537;28;1532;-32
2022/03/11 06:15:12;;;;;;;;;;;;;;;19.19;53.58;102236.25;5018464;28;1977;-32
2022/03/11 06:17:39;;;;;;;;;;;;;;;19.68;52.57;102241.03;5031755;28;1728;-32
2022/03/11 06:20:08;;;;;;;;;;;;;;;19.98;51.26;102250.66;5030986;28;1854;-33
2022/03/11 06:22:46;;;;;;;;;;;;;;;20.15;51.37;102241.41;5020248;28;1363;-32
2022/03/11 06:25:21;;;;;;;;;;;;;;;20.29;50.76;102251.19;5026989;28;1075;-32
2022/03/11 06:27:50;;;;;;;;;;;;;;;20.34;50.05;102249.06;5031121;28;1441;-32
2022/03/11 06:30:17;;;;;;;;;;;;;;;20.26;50.51;102255.81;5018185;28;1747;-32
2022/03/11 06:32:52;;;;;;;;;;;;;;;20.33;50.11;102258.06;5017363;28;1905;-32
2022/03/11 06:35:19;;;;;;;;;;;;;;;20.36;50.82;102255.19;5029646;28;1975;-32
2022/03/11 06:37:55;;;;;;;;;;;;;;;20.62;50.10;102237.22;5033524;28;1517;-32
2022/03/11 06:40:26;;;;;;;;;;;;;;;20.72;50.72;102251.72;5029693;28;1255;-32
2022/03/11 06:42:53;;;;;;;;;;;;;;;20.50;51.00;102265.81;5020112;28;1080;-32
2022/03/11 06:45:20;;;;;;;;;;;;;;;20.40;50.80;102245.94;5020382;28;1577;-32
2022/03/11 06:47:51;;;;;;;;;;;;;;;20.47;50.79;102252.56;5025943;28;1661;-33
2022/03/11 06:50:18;;;;;;;;;;;;;;;20.53;52.40;102260.22;5023785;28;1665;-32
2022/03/11 06:52:58;;;;;;;;;;;;;;;20.40;51.77;102251.31;5019483;28;1823;-32
2022/03/11 06:55:27;;;;;;;;;;;;;;;20.36;51.40;102261.41;5024375;28;1975;-32
2022/03/11 06:57:54;;;;;;;;;;;;;;;20.10;51.59;102255.19;5030514;28;1537;-32
2022/03/11 07:00:24;;;;;;;;;;;;;;;19.90;53.23;102264.63;5029159;28;1710;-32
2022/03/11 07:03:01;;;;;;;;;;;;;;;19.80;53.06;102253.63;5032080;28;1839;-32
2022/03/11 07:05:30;;;;;;;;;;;;;;;19.81;52.30;102270.59;5027754;28;1785;-32
2022/03/11 07:08:05;;;;;;;;;;;;;;;19.81;52.42;102239.25;5026037;28;1560;-34
2022/03/11 07:10:34;;;;;;;;;;;;;;;19.52;52.78;102259.09;5021786;28;1653;-32
2022/03/11 07:15:56;;;;;;;;;;;;;;;19.25;52.65;102238.53;5019077;28;2467;-32
2022/03/11 07:18:23;;;;;;;;;;;;;;;19.23;52.96;102248.50;5031438;28;2002;-33
2022/03/11 07:20:50;;;;;;;;;;;;;;;19.20;52.75;102252.25;5026730;28;1926;-33
2022/03/11 07:23:20;;;;;;;;;;;;;;;19.19;52.90;102260.38;5029912;28;1496;-32
2022/03/11 07:25:50;;;;;;;;;;;;;;;19.09;52.89;102249.41;5019657;28;1802;-32
2022/03/11 07:28:20;;;;;;;;;;;;;;;19.00;52.71;102249.97;5019129;28;1409;-33
2022/03/11 07:30:48;;;;;;;;;;;;;;;18.99;53.96;102246.44;5027877;28;1403;-32
2022/03/11 07:33:24;;;;;;;;;;;;;;;19.01;53.51;102244.53;5032483;28;1736;-32
2022/03/11 07:35:54;;;;;;;;;;;;;;;19.00;53.80;102242.81;5026706;28;1906;-32
2022/03/11 07:38:30;;;;;;;;;;;;;;;19.01;54.63;102244.53;5032373;28;1544;-32
2022/03/11 07:41:02;;;;;;;;;;;;;;;19.07;53.81;102238.75;5022581;28;2065;-32
2022/03/11 07:43:31;;;;;;;;;;;;;;;18.99;54.48;102241.09;5022946;28;1078;-32
2022/03/11 07:46:00;;;;;;;;;;;;;;;19.04;53.86;102243.50;5015861;28;1937;-32
2022/03/11 07:48:27;;;;;;;;;;;;;;;19.31;53.77;102232.75;5019467;28;1650;-32
2022/03/11 07:50:57;;;;;;;;;;;;;;;19.50;52.84;102218.97;5025929;28;1211;-32
2022/03/11 07:53:27;;;;;;;;;;;;;;;19.64;53.32;102218.03;5016633;28;1713;-32
2022/03/11 07:55:57;;;;;;;;;;;;;;;19.74;53.32;102229.91;5029494;28;1981;-32
2022/03/11 07:58:24;;;;;;;;;;;;;;;19.77;52.30;102221.63;5016686;28;1548;-32
2022/03/11 08:00:52;;;;;;;;;;;;;;;19.79;52.73;102224.22;5025802;28;1509;-32
2022/03/11 08:03:19;;;;;;;;;;;;;;;19.80;52.62;102199.94;5029706;28;1676;-32
2022/03/11 08:05:50;;;;;;;;;;;;;;;18.36;55.35;102220.06;5021108;28;1538;-32
2022/03/11 08:08:18;;;;;;;;;;;;;;;19.12;51.25;102214.34;5026634;28;1736;-32
2022/03/11 08:10:59;;;;;;;;;;;;;;;19.40;50.86;102217.88;5030762;28;1549;-32
2022/03/11 08:13:29;;;;;;;;;;;;;;;19.46;50.04;102229.06;5033211;28;1076;-32
2022/03/11 08:15:59;;;;;;;;;;;;;;;19.52;50.50;102213.47;5029413;28;1914;-32
2022/03/11 08:18:39;;;;;;;;;;;;;;;19.53;51.37;102220.59;5025304;28;1452;-32
2022/03/11 08:21:08;;;;;;;;;;;;;;;19.59;50.98;102217.50;5027020;28;1638;-32
2022/03/11 08:23:35;;;;;;;;;;;;;;;19.59;51.77;102223.69;5027755;28;1615;-32
2022/03/11 08:26:02;;;;;;;;;;;;;;;19.65;50.84;102220.59;5018219;28;1686;-32
2022/03/11 08:28:32;;;;;;;;;;;;;;;19.62;52.29;102220.81;5029233;28;1674;-32
2022/03/11 08:31:22;;;;;;;;;;;;;;;19.64;51.63;102212.69;5031476;28;1401;-32
2022/03/11 08:34:03;;;;;;;;;;;;;;;19.63;51.84;102229.72;5026309;28;1856;-32
2022/03/11 08:36:30;;;;;;;;;;;;;;;19.60;52.91;102214.72;5025601;28;1902;-32
2022/03/11 08:38:57;;;;;;;;;;;;;;;19.57;52.73;102209.53;5026381;28;1815;-32
2022/03/11 08:41:27;;;;;;;;;;;;;;;19.48;52.73;102197.63;5030278;28;1684;-32
2022/03/11 08:43:57;;;;;;;;;;;;;;;19.44;53.86;102204.16;5025027;28;1510;-32
2022/03/11 08:46:23;;;;;;;;;;;;;;;19.41;53.47;102208.84;5027585;28;1505;-32
2022/03/11 08:48:53;;;;;;;;;;;;;;;19.31;54.42;102213.13;5024450;28;1871;-32
2022/03/11 08:51:22;;;;;;;;;;;;;;;19.26;53.40;102222.34;5030442;28;1628;-32
2022/03/11 08:56:33;;;;;;;;;;;;;;;19.18;53.86;102205.91;5025243;28;2494;-32
2022/03/11 09:01:48;;;;;;;;;;;;;;;19.13;54.07;102208.00;5033052;28;2481;-33
2022/03/11 09:04:15;;;;;;;;;;;;;;;19.06;54.62;102194.16;5026740;28;1701;-33
2022/03/11 09:06:44;;;;;;;;;;;;;;;19.08;54.35;102192.25;5028126;28;1914;-32
2022/03/11 09:09:13;;;;;;;;;;;;;;;19.10;54.81;102188.56;5025244;28;1805;-32
2022/03/11 09:11:45;;;;;;;;;;;;;;;19.18;54.44;102192.50;5026513;28;1679;-32
2022/03/11 09:14:15;;;;;;;;;;;;;;;19.07;54.66;102179.78;5035959;28;1910;-32
2022/03/11 09:16:44;;;;;;;;;;;;;;;19.02;54.91;102184.59;5034213;28;1914;-32
2022/03/11 09:19:11;;;;;;;;;;;;;;;19.03;55.13;102185.44;5026734;28;1585;-32
2022/03/11 09:21:37;;;;;;;;;;;;;;;19.03;54.35;102185.44;5029558;28;1696;-32
2022/03/11 09:24:04;;;;;;;;;;;;;;;18.99;54.72;102170.53;5027105;28;1850;-32
2022/03/11 09:26:33;;;;;;;;;;;;;;;18.96;54.76;102178.75;5028849;28;1560;-32
2022/03/11 09:29:03;;;;;;;;;;;;;;;18.92;54.87;102174.56;5034632;28;1760;-32
2022/03/11 09:31:35;;;;;;;;;;;;;;;18.90;55.14;102176.50;5033497;28;1888;-32
2022/03/11 09:34:05;;;;;;;;;;;;;;;18.85;55.69;102176.78;5028423;28;2027;-32
2022/03/11 09:36:31;;;;;;;;;;;;;;;18.84;56.02;102175.94;5032733;28;1902;-32
2022/03/11 09:38:58;;;;;;;;;;;;;;;18.78;55.69;102178.13;5033553;28;1559;-32
2022/03/11 09:41:27;;;;;;;;;;;;;;;18.87;55.93;102185.59;5025111;28;1854;-32
2022/03/11 09:43:55;;;;;;;;;;;;;;;18.69;55.90;102174.22;5021989;28;1070;-32
2022/03/11 09:46:22;;;;;;;;;;;;;;;18.74;55.64;102172.13;5023731;28;1756;-33
2022/03/11 09:48:55;;;;;;;;;;;;;;;18.90;56.09;102173.81;5028986;28;1689;-32
2022/03/11 09:51:22;;;;;;;;;;;;;;;19.07;55.84;102157.47;5022790;28;1376;-32
2022/03/11 09:53:49;;;;;;;;;;;;;;;19.25;54.90;102166.09;5019672;28;1996;-32
2022/03/11 09:56:19;;;;;;;;;;;;;;;19.18;55.41;102168.34;5022580;28;1908;-32
2022/03/11 09:58:46;;;;;;;;;;;;;;;19.28;54.94;102174.81;5022059;28;1425;-32
2022/03/11 10:01:12;;;;;;;;;;;;;;;19.34;54.86;102168.19;5025669;28;1338;-33
2022/03/11 10:03:39;;;;;;;;;;;;;;;19.27;55.74;102169.56;5033905;28;1753;-32
2022/03/11 10:06:11;;;;;;;;;;;;;;;19.37;54.80;102181.38;5030888;28;1721;-33
2022/03/11 10:08:39;;;;;;;;;;;;;;;19.19;55.57;102182.63;5026747;28;1648;-32
2022/03/11 10:11:19;;;;;;;;;;;;;;;19.25;55.73;102171.47;5029228;28;1797;-32
2022/03/11 10:13:52;;;;;;;;;;;;;;;19.07;55.58;102165.53;5015038;28;1944;-32
2022/03/11 10:16:31;;;;;;;;;;;;;;;19.00;55.78;102167.75;5031692;28;1909;-32
2022/03/11 10:19:01;;;;;;;;;;;;;;;19.05;55.81;102165.63;5032080;28;1572;-32
2022/03/11 10:21:38;;;;;;;;;;;;;;;18.96;55.36;102166.25;5032968;28;1610;-33
2022/03/11 10:24:07;;;;;;;;;;;;;;;19.00;55.07;102177.59;5027243;28;1819;-32
2022/03/11 10:26:40;;;;;;;;;;;;;;;18.98;55.87;102169.69;5028244;28;1610;-32
2022/03/11 10:29:09;;;;;;;;;;;;;;;18.98;55.32;102164.31;5021393;28;2062;-33
2022/03/11 10:31:47;;;;;;;;;;;;;;;19.02;55.40;102171.19;5021115;28;1317;-32
2022/03/11 10:34:20;;;;;;;;;;;;;;;18.97;55.80;102173.31;5032602;28;1758;-33
2022/03/11 10:37:03;;;;;;;;;;;;;;;18.93;55.36;102166.44;5024696;28;1953;-32
2022/03/11 10:39:36;;;;;;;;;;;;;;;18.89;55.91;102151.50;5030527;28;2003;-32
2022/03/11 10:42:15;;;;;;;;;;;;;;;18.90;55.41;102152.38;5028718;28;1394;-32
2022/03/11 10:44:54;;;;;;;;;;;;;;;18.88;55.40;102152.50;5033102;28;1872;-33
2022/03/11 10:47:21;;;;;;;;;;;;;;;18.87;55.67;102146.25;5029286;28;1674;-32
2022/03/11 10:49:49;;;;;;;;;;;;;;;18.78;56.10;102143.28;5031640;28;1003;-33
2022/03/11 10:52:28;;;;;;;;;;;;;;;18.74;55.90;102144.44;5031031;28;1525;-32
2022/03/11 10:54:57;;;;;;;;;;;;;;;18.73;55.70;102148.09;5025034;28;1753;-33
2022/03/11 10:57:38;;;;;;;;;;;;;;;18.79;55.63;102148.56;5031686;28;1902;-32
2022/03/11 11:00:42;;;;;;;;;;;;;;;18.79;55.04;102139.66;5030704;28;1419;-32
2022/03/11 11:03:30;;;;;;;;;;;;;;;18.80;55.45;102142.28;5029644;28;1475;-33
2022/03/11 11:05:58;;;;;;;;;;;;;;;18.95;55.39;102151.09;5028893;28;1680;-32
2022/03/11 11:08:29;;;;;;;;;;;;;;;18.84;55.49;102149.16;5031915;28;1949;-32
2022/03/11 11:11:10;;;;;;;;;;;;;;;18.73;55.22;102142.72;5030633;28;1380;-32
2022/03/11 11:13:39;;;;;;;;;;;;;;;18.74;55.18;102155.16;5029717;28;1350;-32
2022/03/11 11:16:07;;;;;;;;;;;;;;;18.80;55.41;102136.03;5029542;28;1987;-32
2022/03/11 11:18:34;;;;;;;;;;;;;;;18.61;56.14;102139.88;5031394;28;1336;-32
2022/03/11 11:21:07;;;;;;;;;;;;;;;18.58;55.96;102129.38;5031131;28;1325;-32
2022/03/11 11:26:21;;;;;;;;;;;;;;;18.60;55.79;102122.09;5031293;28;1839;-32
2022/03/11 11:28:47;;;;;;;;;;;;;;;18.55;56.08;102110.81;5032490;28;1290;-32
2022/03/11 11:31:16;;;;;;;;;;;;;;;18.58;56.18;102117.78;5029254;28;1300;-32
2022/03/11 11:33:44;;;;;;;;;;;;;;;18.61;55.97;102102.38;5027778;28;1642;-32
2022/03/11 11:36:12;;;;;;;;;;;;;;;18.67;55.51;102110.00;5030749;28;1910;-32
2022/03/11 11:38:46;;;;;;;;;;;;;;;18.68;55.43;102098.34;5028085;28;1352;-32
2022/03/11 11:41:26;;;;;;;;;;;;;;;18.70;55.61;102095.53;5028617;28;1474;-32
2022/03/11 11:43:54;;;;;;;;;;;;;;;18.74;55.14;102098.88;5027878;28;1553;-32
2022/03/11 11:46:25;;;;;;;;;;;;;;;18.77;56.41;102086.16;5030175;28;1483;-32
2022/03/11 11:49:03;;;;;;;;;;;;;;;18.81;56.45;102102.91;5031798;28;1423;-32
2022/03/11 11:51:48;;;;;;;;;;;;;;;19.19;55.44;102102.16;5032098;28;1427;-33
2022/03/11 11:54:35;;;;;;;;;;;;;;;18.95;56.59;102094.81;5025499;28;1462;-32
2022/03/11 11:57:16;;;;;;;;;;;;;;;18.71;57.46;102091.06;5029953;28;1951;-32
2022/03/11 11:59:44;;;;;;;;;;;;;;;18.88;56.03;102096.19;5031916;28;1478;-32
2022/03/11 12:02:27;;;;;;;;;;;;;;;18.99;56.02;102090.97;5032807;28;1423;-32
2022/03/11 12:04:56;;;;;;;;;;;;;;;19.22;55.57;102085.88;5030968;28;1482;-33
2022/03/11 12:07:48;;;;;;;;;;;;;;;18.96;56.25;102083.13;5030983;28;1347;-35
2022/03/11 12:10:33;;;;;;;;;;;;;;;18.72;56.93;102082.03;5030699;28;1538;-33
2022/03/11 12:13:06;;;;;;;;;;;;;;;18.81;56.36;102092.19;5033796;28;1183;-33
2022/03/11 12:15:34;;;;;;;;;;;;;;;18.90;55.60;102078.19;5026868;28;1973;-33
2022/03/11 12:18:11;;;;;;;;;;;;;;;18.75;55.90;102074.66;5028654;28;1298;-33
2022/03/11 12:20:50;;;;;;;;;;;;;;;18.76;56.12;102067.47;5031197;28;1364;-33
2022/03/11 12:23:29;;;;;;;;;;;;;;;18.90;55.93;102070.16;5028210;28;1549;-33
2022/03/11 12:26:24;;;;;;;;;;;;;;;18.79;56.23;102061.94;5030380;28;1462;-33
2022/03/11 12:28:59;;;;;;;;;;;;;;;18.69;56.14;102065.22;5031110;28;1403;-33
2022/03/11 12:31:31;;;;;;;;;;;;;;;18.74;56.12;102064.94;5028539;28;1663;-33
2022/03/11 12:34:00;;;;;;;;;;;;;;;18.69;56.16;102056.31;5026590;28;1463;-33
2022/03/11 12:36:28;;;;;;;;;;;;;;;18.65;56.67;102076.25;5032448;28;1970;-33
2022/03/11 12:38:55;;;;;;;;;;;;;;;18.61;56.31;102080.94;5034157;28;1927;-34
2022/03/11 12:41:30;;;;;;;;;;;;;;;18.71;56.54;102077.66;5035046;28;1596;-33
2022/03/11 12:44:18;;;;;;;;;;;;;;;18.73;56.09;102089.13;5035846;28;1947;-35
2022/03/11 12:46:44;;;;;;;;;;;;;;;18.66;55.70;102076.16;5029371;28;1492;-33
2022/03/11 12:49:14;;;;;;;;;;;;;;;18.69;55.66;102086.66;5031372;28;1418;-33
2022/03/11 12:51:42;;;;;;;;;;;;;;;18.61;55.81;102070.22;5033884;28;1445;-33
2022/03/11 12:54:20;;;;;;;;;;;;;;;18.65;55.69;102071.75;5026018;28;1478;-33
2022/03/11 12:56:52;;;;;;;;;;;;;;;18.67;55.51;102061.78;5032915;28;1910;-32
2022/03/11 12:59:22;;;;;;;;;;;;;;;18.65;55.90;102066.38;5030574;28;1644;-34
2022/03/11 13:01:52;;;;;;;;;;;;;;;18.61;55.97;102075.59;5035137;28;1331;-34
2022/03/11 13:04:19;;;;;;;;;;;;;;;18.56;56.20;102061.66;5032410;28;1796;-34
2022/03/11 13:06:49;;;;;;;;;;;;;;;18.69;55.57;102062.53;5034062;28;1416;-33
2022/03/11 13:09:23;;;;;;;;;;;;;;;18.69;56.22;102075.94;5019041;28;1674;-33
2022/03/11 13:11:53;;;;;;;;;;;;;;;18.78;55.83;102065.56;5027715;28;1572;-32
2022/03/11 13:14:23;;;;;;;;;;;;;;;18.87;55.84;102075.72;5036299;28;1134;-33
2022/03/11 13:16:53;;;;;;;;;;;;;;;18.69;55.94;102073.25;5020405;28;1906;-32
2022/03/11 13:19:23;;;;;;;;;;;;;;;18.77;55.93;102082.63;5027552;28;1345;-33